createdAt,value
2023-03-10T00:01:18.738Z,96.80
2023-03-10T00:03:47.131Z,96.80
2023-03-10T00:06:18.077Z,96.80
2023-03-10T00:08:46.803Z,96.70
2023-03-10T00:11:16.346Z,96.70
2023-03-10T00:13:44.884Z,96.60
2023-03-10T00:16:20.765Z,96.60
2023-03-10T00:18:49.606Z,96.50
2023-03-10T00:21:21.027Z,96.50
2023-03-10T00:23:49.473Z,96.40
2023-03-10T00:26:20.082Z,96.30
2023-03-10T00:28:48.566Z,96.30
2023-03-10T00:31:20.664Z,96.30
2023-03-10T00:33:49.341Z,96.30
2023-03-10T00:36:20.775Z,96.30
2023-03-10T00:38:50.519Z,96.30
2023-03-10T00:41:21.126Z,96.40
2023-03-10T00:43:49.918Z,96.30
2023-03-10T00:46:20.876Z,96.40
2023-03-10T00:48:49.376Z,96.40
2023-03-10T00:51:18.233Z,96.40
2023-03-10T00:53:47.155Z,96.40
2023-03-10T00:56:18.074Z,96.40
2023-03-10T00:58:47.514Z,96.50
2023-03-10T01:01:20.836Z,96.40
2023-03-10T01:03:51.099Z,96.50
2023-03-10T01:06:19.298Z,96.50
2023-03-10T01:08:47.506Z,96.50
2023-03-10T01:11:16.929Z,96.50
2023-03-10T01:13:45.678Z,96.50
2023-03-10T01:16:14.160Z,96.60
2023-03-10T01:18:45.050Z,96.60
2023-03-10T01:21:18.278Z,96.60
2023-03-10T01:23:46.662Z,96.60
2023-03-10T01:26:16.472Z,96.60
2023-03-10T01:28:46.045Z,96.60
2023-03-10T01:31:14.640Z,96.60
2023-03-10T01:33:45.717Z,96.60
2023-03-10T01:36:16.471Z,96.70
2023-03-10T01:38:45.783Z,96.60
2023-03-10T01:41:14.204Z,96.60
2023-03-10T01:43:43.854Z,96.70
2023-03-10T01:46:46.484Z,96.70
2023-03-10T01:49:23.882Z,96.70
2023-03-10T01:51:57.558Z,96.70
2023-03-10T01:54:29.888Z,96.70
2023-03-10T01:56:59.557Z,96.70
2023-03-10T01:59:29.240Z,96.70
2023-03-10T02:01:59.775Z,96.70
2023-03-10T02:04:37.149Z,96.70
2023-03-10T02:07:07.659Z,96.70
2023-03-10T02:09:39.670Z,96.80
2023-03-10T02:12:10.888Z,96.80
2023-03-10T02:14:40.100Z,96.80
2023-03-10T02:17:13.637Z,96.80
2023-03-10T02:20:07.222Z,96.80
2023-03-10T02:22:35.687Z,96.80
2023-03-10T02:25:17.498Z,96.80
2023-03-10T02:27:47.862Z,96.80
2023-03-10T02:30:21.464Z,96.80
2023-03-10T02:32:54.773Z,96.80
2023-03-10T02:35:23.255Z,96.80
2023-03-10T02:37:51.600Z,96.80
2023-03-10T02:40:40.355Z,96.80
2023-03-10T02:43:18.985Z,96.80
2023-03-10T02:45:49.550Z,96.80
2023-03-10T02:48:28.209Z,96.80
2023-03-10T02:50:58.458Z,96.80
2023-03-10T02:53:29.269Z,96.90
2023-03-10T02:55:58.461Z,96.80
2023-03-10T02:58:30.229Z,96.90
2023-03-10T03:00:58.875Z,96.90
2023-03-10T03:03:28.011Z,96.90
2023-03-10T03:05:56.494Z,96.90
2023-03-10T03:08:25.011Z,96.90
2023-03-10T03:10:53.529Z,96.90
2023-03-10T03:13:22.207Z,96.90
2023-03-10T03:15:52.740Z,96.90
2023-03-10T03:18:21.021Z,96.90
2023-03-10T03:20:49.255Z,96.90
2023-03-10T03:23:17.498Z,96.90
2023-03-10T03:25:45.630Z,96.90
2023-03-10T03:28:14.384Z,96.90
2023-03-10T03:30:42.732Z,96.90
2023-03-10T03:33:12.303Z,96.90
2023-03-10T03:35:40.697Z,96.90
2023-03-10T03:38:09.070Z,96.90
2023-03-10T03:40:38.535Z,96.90
2023-03-10T03:43:06.979Z,96.90
2023-03-10T03:45:35.227Z,96.90
2023-03-10T03:48:03.435Z,96.90
2023-03-10T03:50:32.967Z,96.90
2023-03-10T03:53:01.114Z,96.90
2023-03-10T03:55:29.315Z,96.90
2023-03-10T03:57:57.543Z,96.90
2023-03-10T04:00:26.875Z,96.90
2023-03-10T04:02:55.057Z,96.90
2023-03-10T04:05:23.269Z,96.90
2023-03-10T04:07:52.834Z,96.90
2023-03-10T04:10:23.596Z,96.90
2023-03-10T04:12:51.964Z,96.90
2023-03-10T04:15:20.535Z,96.90
2023-03-10T04:17:48.855Z,96.90
2023-03-10T04:20:18.144Z,96.90
2023-03-10T04:22:46.290Z,96.90
2023-03-10T04:25:15.862Z,96.90
2023-03-10T04:27:44.135Z,96.90
2023-03-10T04:30:15.212Z,96.90
2023-03-10T04:32:43.262Z,96.90
2023-03-10T04:35:14.034Z,96.90
2023-03-10T04:37:44.850Z,96.90
2023-03-10T04:40:16.637Z,96.90
2023-03-10T04:42:44.927Z,96.90
2023-03-10T04:45:13.745Z,96.90
2023-03-10T04:47:42.533Z,96.90
2023-03-10T04:50:17.290Z,96.90
2023-03-10T04:52:45.866Z,96.90
2023-03-10T04:55:16.334Z,96.90
2023-03-10T04:57:44.481Z,96.90
2023-03-10T05:00:14.497Z,96.90
2023-03-10T05:02:43.369Z,96.90
2023-03-10T05:05:13.505Z,96.90
2023-03-10T05:07:41.968Z,96.90
2023-03-10T05:10:12.324Z,96.90
2023-03-10T05:12:43.098Z,96.90
2023-03-10T05:15:12.421Z,96.80
2023-03-10T05:17:40.665Z,96.90
2023-03-10T05:20:10.767Z,96.90
2023-03-10T05:22:39.588Z,96.90
2023-03-10T05:25:09.542Z,96.90
2023-03-10T05:27:39.266Z,96.90
2023-03-10T05:30:16.433Z,96.90
2023-03-10T05:32:45.509Z,96.90
2023-03-10T05:35:14.194Z,96.90
2023-03-10T05:37:44.408Z,96.80
2023-03-10T05:40:19.159Z,96.90
2023-03-10T05:42:47.975Z,96.90
2023-03-10T05:45:18.444Z,96.80
2023-03-10T05:47:47.554Z,96.80
2023-03-10T05:50:16.810Z,96.80
2023-03-10T05:52:45.858Z,96.90
2023-03-10T05:55:16.309Z,96.80
2023-03-10T05:57:45.110Z,96.80
2023-03-10T06:00:17.717Z,96.80
2023-03-10T06:02:46.000Z,96.80
2023-03-10T06:05:14.639Z,96.80
2023-03-10T06:07:43.300Z,96.80
2023-03-10T06:10:12.492Z,96.80
2023-03-10T06:12:40.656Z,96.80
2023-03-10T06:15:10.208Z,96.80
2023-03-10T06:17:39.762Z,96.70
2023-03-10T06:20:08.835Z,96.70
2023-03-10T06:22:37.119Z,96.70
2023-03-10T06:25:06.243Z,96.70
2023-03-10T06:27:34.626Z,96.70
2023-03-10T06:30:03.039Z,96.70
2023-03-10T06:32:31.364Z,96.70
2023-03-10T06:35:01.876Z,96.70
2023-03-10T06:37:30.081Z,96.70
2023-03-10T06:39:58.279Z,96.70
2023-03-10T06:42:26.567Z,96.60
2023-03-10T06:44:56.144Z,96.60
2023-03-10T06:47:24.375Z,96.60
2023-03-10T06:49:54.618Z,96.60
2023-03-10T06:52:24.440Z,96.60
2023-03-10T06:54:52.664Z,96.60
2023-03-10T06:57:22.106Z,96.60
2023-03-10T06:59:50.322Z,96.60
2023-03-10T07:02:19.859Z,96.60
2023-03-10T07:04:48.204Z,96.50
2023-03-10T07:07:16.684Z,96.50
2023-03-10T07:09:46.826Z,96.50
2023-03-10T07:12:15.054Z,96.50
2023-03-10T07:14:43.382Z,96.50
2023-03-10T07:17:11.696Z,96.50
2023-03-10T07:19:39.929Z,96.50
2023-03-10T07:22:10.951Z,96.50
2023-03-10T07:24:39.701Z,96.50
2023-03-10T07:27:09.281Z,96.50
2023-03-10T07:29:37.517Z,96.50
2023-03-10T07:32:06.448Z,96.50
2023-03-10T07:34:34.734Z,96.50
2023-03-10T07:37:02.960Z,96.50
2023-03-10T07:39:31.123Z,96.50
2023-03-10T07:42:00.086Z,96.50
2023-03-10T07:44:29.695Z,96.50
2023-03-10T07:46:58.008Z,96.50
2023-03-10T07:49:26.454Z,96.50
2023-03-10T07:51:54.734Z,96.50
2023-03-10T07:54:22.990Z,96.50
2023-03-10T07:56:51.299Z,96.50
2023-03-10T07:59:19.525Z,96.50
2023-03-10T08:01:49.128Z,96.40
2023-03-10T08:04:17.573Z,96.40
2023-03-10T08:06:47.363Z,96.50
2023-03-10T08:09:15.542Z,96.40
2023-03-10T08:11:43.739Z,96.30
2023-03-10T08:14:12.051Z,96.30
2023-03-10T08:16:40.529Z,96.10
2023-03-10T08:19:10.230Z,96.00
2023-03-10T08:21:38.868Z,95.90
2023-03-10T08:24:07.428Z,95.80
2023-03-10T08:26:35.754Z,95.70
2023-03-10T08:29:04.298Z,95.60
2023-03-10T08:31:32.727Z,95.60
2023-03-10T08:34:00.970Z,95.40
2023-03-10T08:36:32.393Z,95.40
2023-03-10T08:39:02.184Z,95.40
2023-03-10T08:41:34.185Z,95.40
2023-03-10T08:44:04.581Z,95.20
2023-03-10T08:46:34.804Z,95.20
2023-03-10T08:49:03.273Z,94.90
2023-03-10T08:51:32.859Z,94.60
2023-03-10T08:54:01.138Z,94.40
2023-03-10T08:56:30.304Z,94.30
2023-03-10T08:59:00.546Z,93.80
2023-03-10T09:01:32.373Z,93.30
2023-03-10T09:04:01.711Z,93.10
2023-03-10T09:06:30.318Z,92.70
2023-03-10T09:09:00.173Z,92.90
2023-03-10T09:11:32.473Z,92.40
2023-03-10T09:14:01.800Z,91.70
2023-03-10T09:16:30.758Z,91.10
2023-03-10T09:18:59.885Z,91.40
2023-03-10T09:21:30.721Z,91.10
2023-03-10T09:24:05.395Z,90.70
2023-03-10T09:26:34.557Z,90.50
2023-03-10T09:29:03.249Z,91.00
2023-03-10T09:31:33.945Z,90.40
2023-03-10T09:34:02.954Z,90.90
2023-03-10T09:36:31.305Z,89.90
2023-03-10T09:39:02.363Z,90.00
2023-03-10T09:41:46.133Z,90.10
2023-03-10T09:44:27.302Z,90.10
2023-03-10T09:47:07.289Z,89.60
2023-03-10T09:49:39.464Z,89.60
2023-03-10T09:52:24.910Z,88.50
2023-03-10T09:55:00.765Z,87.50
2023-03-10T09:57:31.599Z,88.70
2023-03-10T10:00:05.553Z,88.80
2023-03-10T10:02:38.816Z,88.50
2023-03-10T10:05:17.846Z,88.50
2023-03-10T10:07:51.200Z,88.20
2023-03-10T10:10:26.526Z,88.10
2023-03-10T10:12:55.765Z,87.40
2023-03-10T10:15:25.443Z,87.20
2023-03-10T10:18:19.997Z,88.20
2023-03-10T10:20:53.808Z,88.20
2023-03-10T10:23:30.001Z,88.40
2023-03-10T10:26:10.662Z,88.40
2023-03-10T10:28:44.848Z,88.50
2023-03-10T10:31:20.000Z,88.60
2023-03-10T10:33:58.493Z,87.80
2023-03-10T10:36:29.767Z,88.10
2023-03-10T10:38:59.038Z,88.40
2023-03-10T10:41:31.546Z,88.30
2023-03-10T10:44:08.266Z,88.90
2023-03-10T10:46:36.657Z,89.50
2023-03-10T10:49:08.973Z,89.20
2023-03-10T10:51:38.752Z,89.50
2023-03-10T10:54:28.196Z,89.30
2023-03-10T10:56:59.992Z,90.80
2023-03-10T10:59:32.959Z,91.80
2023-03-10T11:02:03.177Z,92.40
2023-03-10T11:04:44.110Z,92.50
2023-03-10T11:07:17.933Z,92.90
2023-03-10T11:09:46.251Z,93.20
2023-03-10T11:12:22.948Z,93.40
2023-03-10T11:15:07.481Z,93.60
2023-03-10T11:17:44.105Z,93.90
2023-03-10T11:20:26.238Z,94.10
2023-03-10T11:23:04.034Z,94.30
2023-03-10T11:25:39.267Z,94.40
2023-03-10T11:28:33.871Z,94.60
2023-03-10T11:31:25.272Z,94.70
2023-03-10T11:34:03.957Z,94.90
2023-03-10T11:36:49.762Z,95.00
2023-03-10T11:39:36.244Z,95.00
2023-03-10T11:42:14.412Z,95.10
2023-03-10T11:44:58.183Z,95.10
2023-03-10T11:47:51.330Z,95.10
2023-03-10T11:50:32.918Z,95.20
2023-03-10T11:53:04.872Z,95.30
2023-03-10T11:55:34.168Z,95.30
2023-03-10T11:58:05.939Z,95.30
2023-03-10T12:00:41.165Z,95.40
2023-03-10T12:03:18.448Z,95.40
2023-03-10T12:05:52.206Z,95.50
2023-03-10T12:08:25.044Z,95.40
2023-03-10T12:10:55.451Z,95.50
2023-03-10T12:13:27.654Z,95.60
2023-03-10T12:16:00.646Z,95.60
2023-03-10T12:18:29.600Z,95.70
2023-03-10T12:21:22.313Z,95.70
2023-03-10T12:23:52.211Z,95.70
2023-03-10T12:27:03.421Z,95.80
2023-03-10T12:29:43.317Z,95.80
2023-03-10T12:32:47.481Z,95.90
2023-03-10T12:35:42.257Z,95.90
2023-03-10T12:38:37.587Z,95.90
2023-03-10T12:41:06.684Z,96.00
2023-03-10T12:44:18.359Z,96.10
2023-03-10T12:46:50.265Z,96.10
2023-03-10T12:49:35.716Z,96.10
2023-03-10T12:52:21.081Z,96.10
2023-03-10T12:54:56.772Z,96.10
2023-03-10T12:57:32.479Z,96.20
2023-03-10T13:00:07.053Z,96.20
2023-03-10T13:02:40.860Z,96.20
2023-03-10T13:05:24.047Z,96.20
2023-03-10T13:07:58.400Z,96.20
2023-03-10T13:10:30.181Z,96.30
2023-03-10T13:13:04.320Z,96.30
2023-03-10T13:15:34.873Z,96.20
2023-03-10T13:18:18.824Z,96.30
2023-03-10T13:20:49.901Z,96.30
2023-03-10T13:23:24.595Z,96.30
2023-03-10T13:25:55.450Z,96.30
2023-03-10T13:28:24.249Z,96.30
2023-03-10T13:30:52.960Z,96.30
2023-03-10T13:33:25.814Z,96.30
2023-03-10T13:35:55.846Z,96.30
2023-03-10T13:38:25.368Z,96.30
2023-03-10T13:41:03.180Z,96.40
2023-03-10T13:43:37.990Z,96.40
2023-03-10T13:46:09.840Z,96.30
2023-03-10T13:48:40.356Z,96.30
2023-03-10T13:51:20.247Z,96.40
2023-03-10T13:53:52.553Z,96.40
2023-03-10T13:56:25.228Z,96.30
2023-03-10T13:58:56.036Z,96.30
2023-03-10T14:01:28.093Z,96.20
2023-03-10T14:03:59.817Z,96.00
2023-03-10T14:06:30.449Z,95.90
2023-03-10T14:09:13.323Z,95.90
2023-03-10T14:11:44.873Z,95.80
2023-03-10T14:14:15.029Z,95.80
2023-03-10T14:16:54.869Z,95.70
2023-03-10T14:19:50.118Z,95.70
2023-03-10T14:22:39.140Z,95.70
2023-03-10T14:25:15.284Z,95.70
2023-03-10T14:27:46.679Z,95.80
2023-03-10T14:30:25.714Z,95.80
2023-03-10T14:32:55.393Z,95.80
2023-03-10T14:35:25.450Z,95.80
2023-03-10T14:37:55.390Z,95.90
2023-03-10T14:40:26.248Z,95.90
2023-03-10T14:42:59.146Z,95.90
2023-03-10T14:45:31.330Z,95.90
2023-03-10T14:48:02.943Z,95.90
2023-03-10T14:50:31.816Z,95.90
2023-03-10T14:53:01.365Z,95.90
2023-03-10T14:55:30.392Z,96.00
2023-03-10T14:58:02.417Z,96.00
2023-03-10T15:00:31.892Z,96.00
2023-03-10T15:03:00.757Z,96.00
2023-03-10T15:05:46.888Z,96.00
2023-03-10T15:08:17.498Z,96.10
2023-03-10T15:10:50.402Z,96.10
2023-03-10T15:13:21.457Z,96.10
2023-03-10T15:15:50.276Z,96.10
2023-03-10T15:18:21.546Z,96.10
2023-03-10T15:20:50.662Z,96.10
2023-03-10T15:23:22.358Z,95.80
2023-03-10T15:25:50.604Z,95.50
2023-03-10T15:28:19.006Z,95.40
2023-03-10T15:30:47.318Z,95.30
2023-03-10T15:33:16.125Z,95.00
2023-03-10T15:35:45.051Z,95.00
2023-03-10T15:38:15.966Z,95.10
2023-03-10T15:40:45.619Z,95.20
2023-03-10T15:43:14.380Z,95.20
2023-03-10T15:45:46.545Z,95.30
2023-03-10T15:48:14.764Z,95.20
2023-03-10T15:50:44.740Z,95.30
2023-03-10T15:53:13.074Z,95.30
2023-03-10T15:55:43.084Z,95.40
2023-03-10T15:58:13.513Z,95.30
2023-03-10T16:00:43.881Z,95.20
2023-03-10T16:03:12.496Z,95.10
2023-03-10T16:05:48.917Z,95.20
2023-03-10T16:08:18.990Z,95.20
2023-03-10T16:10:53.238Z,95.20
2023-03-10T16:13:23.680Z,95.00
2023-03-10T16:15:52.872Z,95.10
2023-03-10T16:18:21.484Z,95.00
2023-03-10T16:20:58.521Z,95.00
2023-03-10T16:23:27.130Z,95.10
2023-03-10T16:26:10.091Z,95.10
2023-03-10T16:28:43.008Z,95.10
2023-03-10T16:31:13.190Z,95.10
2023-03-10T16:33:42.412Z,95.10
2023-03-10T16:36:15.649Z,95.10
2023-03-10T16:38:43.957Z,95.20
2023-03-10T16:41:13.010Z,95.20
2023-03-10T16:43:43.538Z,95.20
2023-03-10T16:46:14.801Z,95.20
2023-03-10T16:48:45.773Z,95.20
2023-03-10T16:51:27.568Z,95.30
2023-03-10T16:54:01.156Z,95.30
2023-03-10T16:56:31.309Z,95.30
2023-03-10T16:59:00.865Z,95.40
2023-03-10T17:01:29.301Z,95.40
2023-03-10T17:03:57.996Z,95.40
2023-03-10T17:06:29.817Z,95.40
2023-03-10T17:08:59.254Z,95.40
2023-03-10T17:11:29.290Z,95.40
2023-03-10T17:14:01.079Z,95.50
2023-03-10T17:16:31.366Z,95.50
2023-03-10T17:19:02.896Z,95.50
2023-03-10T17:21:35.815Z,95.50
2023-03-10T17:24:04.891Z,95.50
2023-03-10T17:26:33.375Z,95.50
2023-03-10T17:29:03.330Z,95.60
2023-03-10T17:31:31.976Z,95.50
2023-03-10T17:34:03.114Z,95.50
2023-03-10T17:36:31.756Z,95.50
2023-03-10T17:39:02.739Z,95.50
2023-03-10T17:41:34.753Z,95.50
2023-03-10T17:44:05.446Z,95.50
2023-03-10T17:46:34.045Z,95.50
2023-03-10T17:49:03.597Z,95.40
2023-03-10T17:51:32.703Z,95.50
2023-03-10T17:54:02.474Z,95.50
2023-03-10T17:56:30.886Z,95.50
2023-03-10T17:59:00.096Z,95.50
2023-03-10T18:01:31.745Z,95.50
2023-03-10T18:04:01.751Z,95.50
2023-03-10T18:06:33.697Z,95.50
2023-03-10T18:09:05.857Z,95.50
2023-03-10T18:11:35.277Z,95.50
2023-03-10T18:14:04.108Z,95.50
2023-03-10T18:16:36.077Z,95.60
2023-03-10T18:19:05.054Z,95.60
2023-03-10T18:21:33.482Z,95.60
2023-03-10T18:24:01.833Z,95.60
2023-03-10T18:26:31.439Z,95.70
2023-03-10T18:29:00.541Z,95.60
2023-03-10T18:31:31.218Z,95.70
2023-03-10T18:34:01.934Z,95.60
2023-03-10T18:36:32.954Z,95.70
2023-03-10T18:39:03.563Z,95.60
2023-03-10T18:41:32.689Z,95.70
2023-03-10T18:44:01.654Z,95.60
2023-03-10T18:46:30.600Z,95.60
2023-03-10T18:49:00.276Z,95.60
2023-03-10T18:51:31.702Z,95.50
2023-03-10T18:53:59.954Z,95.50
2023-03-10T18:56:29.171Z,95.50
2023-03-10T18:59:00.409Z,95.40
2023-03-10T19:01:28.925Z,95.50
2023-03-10T19:03:57.567Z,95.40
2023-03-10T19:06:31.587Z,95.30
2023-03-10T19:09:01.259Z,95.30
2023-03-10T19:11:35.431Z,95.30
2023-03-10T19:14:05.382Z,95.30
2023-03-10T19:16:35.543Z,95.30
2023-03-10T19:19:04.062Z,95.30
2023-03-10T19:21:35.687Z,95.20
2023-03-10T19:24:04.127Z,95.30
2023-03-10T19:26:33.586Z,95.30
2023-03-10T19:29:01.918Z,95.30
2023-03-10T19:31:30.383Z,95.30
2023-03-10T19:33:58.714Z,95.30
2023-03-10T19:36:29.434Z,95.30
2023-03-10T19:38:59.215Z,95.30
2023-03-10T19:41:27.707Z,95.30
2023-03-10T19:43:55.903Z,95.30
2023-03-10T19:46:24.520Z,95.40
2023-03-10T19:48:52.938Z,95.40
2023-03-10T19:51:29.846Z,95.40
2023-03-10T19:54:02.848Z,95.40
2023-03-10T19:56:31.627Z,95.50
2023-03-10T19:58:59.948Z,95.50
2023-03-10T20:01:28.794Z,95.50
2023-03-10T20:04:00.872Z,95.50
2023-03-10T20:06:30.098Z,95.50
2023-03-10T20:08:59.953Z,95.60
2023-03-10T20:11:28.346Z,95.60
2023-03-10T20:13:59.290Z,95.60
2023-03-10T20:16:27.995Z,95.50
2023-03-10T20:18:56.311Z,95.50
2023-03-10T20:21:24.525Z,95.50
2023-03-10T20:23:55.501Z,95.50
2023-03-10T20:26:26.101Z,95.40
2023-03-10T20:28:54.521Z,95.40
2023-03-10T20:31:24.402Z,95.40
2023-03-10T20:33:53.463Z,95.40
2023-03-10T20:36:21.833Z,95.30
2023-03-10T20:38:50.104Z,95.30
2023-03-10T20:41:20.414Z,95.20
2023-03-10T20:43:50.690Z,95.20
2023-03-10T20:46:19.790Z,95.20
2023-03-10T20:48:49.875Z,95.20
2023-03-10T20:51:19.185Z,95.10
2023-03-10T20:53:47.996Z,95.10
2023-03-10T20:56:16.724Z,95.10
2023-03-10T20:58:45.198Z,95.10
2023-03-10T21:01:20.902Z,95.10
2023-03-10T21:03:54.577Z,95.10
2023-03-10T21:06:23.656Z,95.00
2023-03-10T21:08:52.165Z,95.00
2023-03-10T21:11:20.494Z,95.00
2023-03-10T21:13:48.937Z,94.90
2023-03-10T21:16:20.655Z,95.00
2023-03-10T21:18:49.122Z,94.80
2023-03-10T21:21:17.434Z,94.90
2023-03-10T21:23:46.141Z,94.90
2023-03-10T21:26:17.508Z,94.90
2023-03-10T21:28:46.453Z,94.80
2023-03-10T21:31:15.484Z,94.70
2023-03-10T21:33:45.318Z,94.60
2023-03-10T21:36:17.014Z,94.70
2023-03-10T21:38:48.670Z,94.70
2023-03-10T21:41:18.708Z,94.70
2023-03-10T21:43:47.068Z,94.80
2023-03-10T21:46:15.351Z,94.70
2023-03-10T21:48:51.305Z,94.70
2023-03-10T21:51:23.031Z,94.60
2023-03-10T21:53:51.837Z,94.60
2023-03-10T21:56:22.101Z,94.60
2023-03-10T21:58:50.593Z,94.50
2023-03-10T22:01:19.981Z,94.40
2023-03-10T22:03:48.296Z,94.30
2023-03-10T22:06:17.899Z,94.20
2023-03-10T22:08:46.176Z,94.10
2023-03-10T22:11:14.691Z,94.00
2023-03-10T22:13:43.571Z,94.00
2023-03-10T22:16:17.539Z,94.00
2023-03-10T22:18:46.424Z,94.00
2023-03-10T22:21:14.585Z,93.90
2023-03-10T22:23:44.789Z,94.00
2023-03-10T22:26:13.691Z,93.90
2023-03-10T22:28:42.266Z,93.90
2023-03-10T22:31:11.684Z,93.90
2023-03-10T22:33:40.052Z,94.00
2023-03-10T22:36:12.614Z,94.10
2023-03-10T22:38:41.270Z,94.00
2023-03-10T22:41:13.134Z,94.00
2023-03-10T22:43:41.526Z,94.00
2023-03-10T22:46:12.089Z,94.00
2023-03-10T22:48:41.133Z,93.90
2023-03-10T22:51:11.598Z,93.80
2023-03-10T22:53:39.868Z,93.70
2023-03-10T22:56:09.294Z,93.70
2023-03-10T22:58:38.864Z,93.60
2023-03-10T23:01:07.532Z,93.60
2023-03-10T23:03:36.593Z,93.70
2023-03-10T23:06:08.686Z,93.70
2023-03-10T23:08:37.551Z,93.80
2023-03-10T23:11:11.318Z,93.90
2023-03-10T23:13:41.651Z,93.90
2023-03-10T23:16:12.628Z,93.90
2023-03-10T23:18:41.299Z,93.60
2023-03-10T23:21:09.560Z,93.60
2023-03-10T23:23:39.220Z,93.60
2023-03-10T23:26:07.459Z,93.60
2023-03-10T23:28:35.605Z,93.40
2023-03-10T23:31:05.797Z,93.30
2023-03-10T23:33:34.724Z,93.40
2023-03-10T23:36:03.002Z,93.40
2023-03-10T23:38:31.385Z,93.40
2023-03-10T23:40:59.719Z,93.60
2023-03-10T23:43:28.177Z,93.50
2023-03-10T23:45:56.450Z,93.40
2023-03-10T23:48:26.218Z,93.20
2023-03-10T23:50:54.374Z,93.20
2023-03-10T23:53:22.620Z,93.30
2023-03-10T23:55:51.297Z,93.40
2023-03-10T23:58:21.157Z,93.20
